KID weather

Kristianstad Airport
Kristianstad, Skåne län, Sweden

Public forecast

Using degrees Celsius for public forecast. Weather courtesy of forecast.io.

METAR (pilot weather report)

Retrieved 2019/07/16 03:20 UTC (17 minutes ago):

ESMK 160320Z AUTO 28004KT 9999 SCT096/// BKN110/// 12/11 Q1010

TAF (pilot weather forecast)

Forecast is more than 12 hours old.

Retrieved 2015/03/18 12:33 UTC (4 years ago):

TAF ESMK 181130Z 1812/1824 13012KT CAVOK